sensor_id;sensor_type;location;lat;lon;timestamp;temperature;humidity
27781;DHT22;15167;1.318;103.762;2022-08-11T00:00:12;28.50;1.00
27781;DHT22;15167;1.318;103.762;2022-08-11T00:02:40;28.60;1.00
27781;DHT22;15167;1.318;103.762;2022-08-11T00:05:11;28.60;1.00
27781;DHT22;15167;1.318;103.762;2022-08-11T00:07:48;28.70;1.00
27781;DHT22;15167;1.318;103.762;2022-08-11T00:10:21;28.80;1.00
27781;DHT22;15167;1.318;103.762;2022-08-11T00:12:50;28.80;1.00
27781;DHT22;15167;1.318;103.762;2022-08-11T00:15:16;28.80;1.00
27781;DHT22;15167;1.318;103.762;2022-08-11T00:17:43;28.90;1.00
27781;DHT22;15167;1.318;103.762;2022-08-11T00:20:11;29.00;1.00
27781;DHT22;15167;1.318;103.762;2022-08-11T00:22:38;29.10;1.00
27781;DHT22;15167;1.318;103.762;2022-08-11T00:27:36;29.20;1.00
27781;DHT22;15167;1.318;103.762;2022-08-11T00:30:03;29.20;1.00
27781;DHT22;15167;1.318;103.762;2022-08-11T00:32:30;29.20;1.00
27781;DHT22;15167;1.318;103.762;2022-08-11T00:34:57;29.30;1.00
27781;DHT22;15167;1.318;103.762;2022-08-11T00:37:23;29.40;1.00
27781;DHT22;15167;1.318;103.762;2022-08-11T00:39:52;29.40;1.00
27781;DHT22;15167;1.318;103.762;2022-08-11T00:44:53;29.30;99.90
27781;DHT22;15167;1.318;103.762;2022-08-11T00:55:24;29.30;99.90
27781;DHT22;15167;1.318;103.762;2022-08-11T01:00:24;29.40;99.90
27781;DHT22;15167;1.318;103.762;2022-08-11T01:05:59;29.50;99.90
27781;DHT22;15167;1.318;103.762;2022-08-11T01:21:56;30.00;99.90
27781;DHT22;15167;1.318;103.762;2022-08-11T01:37:38;30.30;99.90
27781;DHT22;15167;1.318;103.762;2022-08-11T01:46:00;30.50;99.90
27781;DHT22;15167;1.318;103.762;2022-08-11T01:48:34;30.60;75.30
27781;DHT22;15167;1.318;103.762;2022-08-11T01:53:44;30.60;60.30
27781;DHT22;15167;1.318;103.762;2022-08-11T02:04:14;30.30;84.40
27781;DHT22;15167;1.318;103.762;2022-08-11T02:07:32;30.20;76.50
27781;DHT22;15167;1.318;103.762;2022-08-11T02:20:22;30.50;33.30
27781;DHT22;15167;1.318;103.762;2022-08-11T02:23:28;30.60;19.10
27781;DHT22;15167;1.318;103.762;2022-08-11T02:26:07;30.80;1.00
27781;DHT22;15167;1.318;103.762;2022-08-11T02:31:17;31.00;1.00
27781;DHT22;15167;1.318;103.762;2022-08-11T02:34:27;31.00;1.00
27781;DHT22;15167;1.318;103.762;2022-08-11T02:37:23;31.20;1.00
27781;DHT22;15167;1.318;103.762;2022-08-11T02:50:20;31.30;99.90
27781;DHT22;15167;1.318;103.762;2022-08-11T03:00:52;31.30;99.90
27781;DHT22;15167;1.318;103.762;2022-08-11T03:08:52;31.30;99.90
27781;DHT22;15167;1.318;103.762;2022-08-11T03:11:39;31.30;99.90
27781;DHT22;15167;1.318;103.762;2022-08-11T03:22:16;31.60;99.90
27781;DHT22;15167;1.318;103.762;2022-08-11T03:25:01;31.70;99.90
27781;DHT22;15167;1.318;103.762;2022-08-11T03:30:06;32.00;99.90
27781;DHT22;15167;1.318;103.762;2022-08-11T03:33:22;32.10;99.90
27781;DHT22;15167;1.318;103.762;2022-08-11T03:35:41;32.20;99.90
27781;DHT22;15167;1.318;103.762;2022-08-11T03:38:10;32.40;99.90
27781;DHT22;15167;1.318;103.762;2022-08-11T03:43:33;32.40;99.90
27781;DHT22;15167;1.318;103.762;2022-08-11T04:04:13;33.00;99.90
27781;DHT22;15167;1.318;103.762;2022-08-11T04:14:46;33.50;99.90
27781;DHT22;15167;1.318;103.762;2022-08-11T04:37:01;33.50;81.30
27781;DHT22;15167;1.318;103.762;2022-08-11T04:40:02;33.60;46.90
27781;DHT22;15167;1.318;103.762;2022-08-11T04:42:48;33.60;6.40
27781;DHT22;15167;1.318;103.762;2022-08-11T04:57:34;33.80;1.00
27781;DHT22;15167;1.318;103.762;2022-08-11T05:00:20;34.00;99.90
27781;DHT22;15167;1.318;103.762;2022-08-11T05:03:19;34.10;99.90
27781;DHT22;15167;1.318;103.762;2022-08-11T05:11:21;34.30;99.90
27781;DHT22;15167;1.318;103.762;2022-08-11T05:13:58;34.20;53.50
27781;DHT22;15167;1.318;103.762;2022-08-11T05:16:52;34.20;1.00
27781;DHT22;15167;1.318;103.762;2022-08-11T05:19:37;34.20;1.00
27781;DHT22;15167;1.318;103.762;2022-08-11T05:22:25;34.10;1.00
27781;DHT22;15167;1.318;103.762;2022-08-11T05:25:13;34.10;1.00
27781;DHT22;15167;1.318;103.762;2022-08-11T05:28:02;34.00;65.90
27781;DHT22;15167;1.318;103.762;2022-08-11T05:30:48;33.90;80.50
27781;DHT22;15167;1.318;103.762;2022-08-11T05:33:36;34.00;79.30
27781;DHT22;15167;1.318;103.762;2022-08-11T05:39:20;33.80;99.90
27781;DHT22;15167;1.318;103.762;2022-08-11T05:42:05;34.10;75.70
27781;DHT22;15167;1.318;103.762;2022-08-11T05:44:51;34.40;1.00
27781;DHT22;15167;1.318;103.762;2022-08-11T05:47:36;34.50;1.00
27781;DHT22;15167;1.318;103.762;2022-08-11T05:50:22;34.80;1.00
27781;DHT22;15167;1.318;103.762;2022-08-11T05:53:11;34.70;1.00
27781;DHT22;15167;1.318;103.762;2022-08-11T05:55:56;34.70;1.00
27781;DHT22;15167;1.318;103.762;2022-08-11T05:58:43;34.80;99.90
27781;DHT22;15167;1.318;103.762;2022-08-11T06:01:10;34.80;99.90
27781;DHT22;15167;1.318;103.762;2022-08-11T06:03:36;34.90;99.90
27781;DHT22;15167;1.318;103.762;2022-08-11T06:06:21;35.00;99.90
27781;DHT22;15167;1.318;103.762;2022-08-11T06:08:49;34.90;99.90
27781;DHT22;15167;1.318;103.762;2022-08-11T06:11:20;34.80;99.90
27781;DHT22;15167;1.318;103.762;2022-08-11T06:13:46;34.80;99.90
27781;DHT22;15167;1.318;103.762;2022-08-11T06:16:13;34.90;99.90
27781;DHT22;15167;1.318;103.762;2022-08-11T06:18:48;35.00;99.90
27781;DHT22;15167;1.318;103.762;2022-08-11T06:21:15;35.00;99.90
27781;DHT22;15167;1.318;103.762;2022-08-11T06:23:41;35.10;99.90
27781;DHT22;15167;1.318;103.762;2022-08-11T06:26:08;35.20;99.90
27781;DHT22;15167;1.318;103.762;2022-08-11T06:28:36;35.20;99.90
27781;DHT22;15167;1.318;103.762;2022-08-11T06:31:23;35.30;99.90
27781;DHT22;15167;1.318;103.762;2022-08-11T06:46:48;35.60;96.30
27781;DHT22;15167;1.318;103.762;2022-08-11T06:49:16;35.60;16.80
27781;DHT22;15167;1.318;103.762;2022-08-11T06:52:03;35.50;3.60
27781;DHT22;15167;1.318;103.762;2022-08-11T06:54:29;35.50;1.00
27781;DHT22;15167;1.318;103.762;2022-08-11T06:56:57;35.40;1.00
27781;DHT22;15167;1.318;103.762;2022-08-11T06:59:43;35.40;99.90
27781;DHT22;15167;1.318;103.762;2022-08-11T07:02:36;35.60;99.90
27781;DHT22;15167;1.318;103.762;2022-08-11T07:05:10;35.60;99.90
27781;DHT22;15167;1.318;103.762;2022-08-11T07:10:39;35.70;99.90
27781;DHT22;15167;1.318;103.762;2022-08-11T07:13:26;35.80;78.50
27781;DHT22;15167;1.318;103.762;2022-08-11T07:16:13;35.90;1.00
27781;DHT22;15167;1.318;103.762;2022-08-11T07:18:42;36.00;1.00
27781;DHT22;15167;1.318;103.762;2022-08-11T07:21:31;36.00;99.90
27781;DHT22;15167;1.318;103.762;2022-08-11T07:24:25;35.90;99.90
27781;DHT22;15167;1.318;103.762;2022-08-11T07:27:14;36.00;99.90
27781;DHT22;15167;1.318;103.762;2022-08-11T07:30:02;36.50;99.90
27781;DHT22;15167;1.318;103.762;2022-08-11T07:32:30;37.40;33.70
27781;DHT22;15167;1.318;103.762;2022-08-11T07:35:10;38.10;1.00
27781;DHT22;15167;1.318;103.762;2022-08-11T07:37:41;38.80;1.00
27781;DHT22;15167;1.318;103.762;2022-08-11T07:40:08;39.40;1.00
27781;DHT22;15167;1.318;103.762;2022-08-11T07:42:35;39.60;99.90
27781;DHT22;15167;1.318;103.762;2022-08-11T07:45:04;39.50;99.90
27781;DHT22;15167;1.318;103.762;2022-08-11T07:47:49;38.60;99.90
27781;DHT22;15167;1.318;103.762;2022-08-11T07:50:38;37.80;99.90
27781;DHT22;15167;1.318;103.762;2022-08-11T07:53:23;36.90;99.90
27781;DHT22;15167;1.318;103.762;2022-08-11T07:55:49;36.60;1.00
27781;DHT22;15167;1.318;103.762;2022-08-11T07:58:22;36.00;1.00
27781;DHT22;15167;1.318;103.762;2022-08-11T08:01:06;35.90;1.00
27781;DHT22;15167;1.318;103.762;2022-08-11T08:03:51;35.50;99.90
27781;DHT22;15167;1.318;103.762;2022-08-11T08:06:36;35.10;99.90
27781;DHT22;15167;1.318;103.762;2022-08-11T08:09:21;34.90;1.00
27781;DHT22;15167;1.318;103.762;2022-08-11T08:12:06;34.90;1.00
27781;DHT22;15167;1.318;103.762;2022-08-11T08:14:51;34.90;1.00
27781;DHT22;15167;1.318;103.762;2022-08-11T08:17:36;34.70;99.90
27781;DHT22;15167;1.318;103.762;2022-08-11T08:20:39;34.80;99.90
27781;DHT22;15167;1.318;103.762;2022-08-11T08:23:07;34.80;99.90
27781;DHT22;15167;1.318;103.762;2022-08-11T08:25:34;34.70;99.90
27781;DHT22;15167;1.318;103.762;2022-08-11T08:28:02;34.60;99.90
27781;DHT22;15167;1.318;103.762;2022-08-11T08:30:29;34.50;99.90
27781;DHT22;15167;1.318;103.762;2022-08-11T08:33:16;34.50;99.90
27781;DHT22;15167;1.318;103.762;2022-08-11T08:35:43;34.40;99.90
27781;DHT22;15167;1.318;103.762;2022-08-11T08:38:10;34.20;1.00
27781;DHT22;15167;1.318;103.762;2022-08-11T08:40:38;34.30;1.00
27781;DHT22;15167;1.318;103.762;2022-08-11T08:43:10;34.30;53.10
27781;DHT22;15167;1.318;103.762;2022-08-11T08:45:37;34.40;1.00
27781;DHT22;15167;1.318;103.762;2022-08-11T08:50:37;34.20;57.30
27781;DHT22;15167;1.318;103.762;2022-08-11T08:53:24;34.20;99.90
27781;DHT22;15167;1.318;103.762;2022-08-11T08:55:57;34.20;99.90
27781;DHT22;15167;1.318;103.762;2022-08-11T08:58:24;34.20;1.00
27781;DHT22;15167;1.318;103.762;2022-08-11T09:00:52;34.20;1.00
27781;DHT22;15167;1.318;103.762;2022-08-11T09:03:19;34.10;1.00
27781;DHT22;15167;1.318;103.762;2022-08-11T09:05:46;34.10;99.90
27781;DHT22;15167;1.318;103.762;2022-08-11T09:08:13;34.10;1.00
27781;DHT22;15167;1.318;103.762;2022-08-11T09:10:42;34.10;1.00
27781;DHT22;15167;1.318;103.762;2022-08-11T09:13:10;34.10;99.90
27781;DHT22;15167;1.318;103.762;2022-08-11T09:15:36;34.10;99.90
27781;DHT22;15167;1.318;103.762;2022-08-11T09:18:02;34.10;99.90
27781;DHT22;15167;1.318;103.762;2022-08-11T09:20:32;34.10;99.90
27781;DHT22;15167;1.318;103.762;2022-08-11T09:23:02;34.00;99.90
27781;DHT22;15167;1.318;103.762;2022-08-11T09:25:48;34.10;99.90
27781;DHT22;15167;1.318;103.762;2022-08-11T09:28:33;34.10;99.90
27781;DHT22;15167;1.318;103.762;2022-08-11T09:31:01;34.20;99.90
27781;DHT22;15167;1.318;103.762;2022-08-11T09:33:28;34.30;99.90
27781;DHT22;15167;1.318;103.762;2022-08-11T09:35:55;34.30;99.90
27781;DHT22;15167;1.318;103.762;2022-08-11T09:38:22;34.30;99.90
27781;DHT22;15167;1.318;103.762;2022-08-11T09:41:08;34.30;99.90
27781;DHT22;15167;1.318;103.762;2022-08-11T09:43:35;34.40;99.90
27781;DHT22;15167;1.318;103.762;2022-08-11T09:46:25;34.60;91.00
27781;DHT22;15167;1.318;103.762;2022-08-11T09:48:54;34.70;1.00
27781;DHT22;15167;1.318;103.762;2022-08-11T09:51:21;34.70;99.90
27781;DHT22;15167;1.318;103.762;2022-08-11T09:53:48;34.80;99.90
27781;DHT22;15167;1.318;103.762;2022-08-11T09:56:15;34.90;99.90
27781;DHT22;15167;1.318;103.762;2022-08-11T09:59:01;34.80;99.90
27781;DHT22;15167;1.318;103.762;2022-08-11T10:01:29;34.90;99.90
27781;DHT22;15167;1.318;103.762;2022-08-11T10:04:12;34.90;1.00
27781;DHT22;15167;1.318;103.762;2022-08-11T10:06:45;35.00;99.90
27781;DHT22;15167;1.318;103.762;2022-08-11T10:11:58;35.20;99.90
27781;DHT22;15167;1.318;103.762;2022-08-11T10:14:27;35.20;99.90
27781;DHT22;15167;1.318;103.762;2022-08-11T10:17:13;35.20;1.00
27781;DHT22;15167;1.318;103.762;2022-08-11T10:19:41;35.20;1.00
27781;DHT22;15167;1.318;103.762;2022-08-11T10:22:08;35.10;57.70
27781;DHT22;15167;1.318;103.762;2022-08-11T10:24:52;35.70;99.90
27781;DHT22;15167;1.318;103.762;2022-08-11T10:27:41;35.00;99.90
27781;DHT22;15167;1.318;103.762;2022-08-11T10:30:08;35.10;1.00
27781;DHT22;15167;1.318;103.762;2022-08-11T10:32:53;35.00;99.90
27781;DHT22;15167;1.318;103.762;2022-08-11T10:35:37;34.90;99.90
27781;DHT22;15167;1.318;103.762;2022-08-11T10:38:03;35.00;99.90
27781;DHT22;15167;1.318;103.762;2022-08-11T10:40:30;35.10;99.90
27781;DHT22;15167;1.318;103.762;2022-08-11T10:42:58;35.20;99.90
27781;DHT22;15167;1.318;103.762;2022-08-11T10:45:30;35.10;99.90
27781;DHT22;15167;1.318;103.762;2022-08-11T10:48:16;34.60;99.90
27781;DHT22;15167;1.318;103.762;2022-08-11T10:50:46;34.10;63.60
27781;DHT22;15167;1.318;103.762;2022-08-11T10:53:31;33.90;99.90
27781;DHT22;15167;1.318;103.762;2022-08-11T10:56:16;33.60;1.00
27781;DHT22;15167;1.318;103.762;2022-08-11T10:59:01;33.30;99.90
27781;DHT22;15167;1.318;103.762;2022-08-11T11:01:30;33.10;99.90
27781;DHT22;15167;1.318;103.762;2022-08-11T11:08:57;32.70;99.90
27781;DHT22;15167;1.318;103.762;2022-08-11T11:11:26;32.50;99.90
27781;DHT22;15167;1.318;103.762;2022-08-11T11:14:16;32.50;99.90
27781;DHT22;15167;1.318;103.762;2022-08-11T11:17:05;32.50;32.30
27781;DHT22;15167;1.318;103.762;2022-08-11T11:19:56;32.30;91.50
27781;DHT22;15167;1.318;103.762;2022-08-11T11:22:29;32.30;99.90
27781;DHT22;15167;1.318;103.762;2022-08-11T11:30:45;32.10;99.90
27781;DHT22;15167;1.318;103.762;2022-08-11T11:38:39;32.00;99.90
27781;DHT22;15167;1.318;103.762;2022-08-11T11:41:06;32.00;99.90
27781;DHT22;15167;1.318;103.762;2022-08-11T11:43:55;31.90;1.00
27781;DHT22;15167;1.318;103.762;2022-08-11T11:46:26;31.80;1.00
27781;DHT22;15167;1.318;103.762;2022-08-11T11:48:53;31.70;1.00
27781;DHT22;15167;1.318;103.762;2022-08-11T11:51:23;31.70;1.00
27781;DHT22;15167;1.318;103.762;2022-08-11T11:53:50;31.60;1.00
27781;DHT22;15167;1.318;103.762;2022-08-11T11:56:18;31.60;1.00
27781;DHT22;15167;1.318;103.762;2022-08-11T11:58:47;31.60;1.00
27781;DHT22;15167;1.318;103.762;2022-08-11T12:01:32;31.60;1.00
27781;DHT22;15167;1.318;103.762;2022-08-11T12:03:59;31.60;1.00
27781;DHT22;15167;1.318;103.762;2022-08-11T12:06:31;31.60;1.00
27781;DHT22;15167;1.318;103.762;2022-08-11T12:08:58;31.50;10.00
27781;DHT22;15167;1.318;103.762;2022-08-11T12:11:26;31.40;44.40
27781;DHT22;15167;1.318;103.762;2022-08-11T12:14:11;31.30;68.40
27781;DHT22;15167;1.318;103.762;2022-08-11T12:16:42;31.40;92.20
27781;DHT22;15167;1.318;103.762;2022-08-11T12:19:14;31.30;95.60
27781;DHT22;15167;1.318;103.762;2022-08-11T12:21:41;31.30;99.90
27781;DHT22;15167;1.318;103.762;2022-08-11T12:24:31;31.20;99.90
27781;DHT22;15167;1.318;103.762;2022-08-11T12:27:17;31.20;99.90
27781;DHT22;15167;1.318;103.762;2022-08-11T12:29:48;31.10;99.90
27781;DHT22;15167;1.318;103.762;2022-08-11T12:32:16;31.10;99.90
27781;DHT22;15167;1.318;103.762;2022-08-11T12:34:43;31.10;99.90
27781;DHT22;15167;1.318;103.762;2022-08-11T12:37:09;30.90;99.90
27781;DHT22;15167;1.318;103.762;2022-08-11T12:39:42;30.90;99.90
27781;DHT22;15167;1.318;103.762;2022-08-11T12:42:27;30.90;99.90
27781;DHT22;15167;1.318;103.762;2022-08-11T12:45:14;30.90;99.90
27781;DHT22;15167;1.318;103.762;2022-08-11T12:48:11;31.00;99.90
27781;DHT22;15167;1.318;103.762;2022-08-11T12:51:00;30.90;99.90
27781;DHT22;15167;1.318;103.762;2022-08-11T12:53:50;30.90;99.90
27781;DHT22;15167;1.318;103.762;2022-08-11T12:56:18;30.90;99.90
27781;DHT22;15167;1.318;103.762;2022-08-11T12:59:03;30.90;99.90
27781;DHT22;15167;1.318;103.762;2022-08-11T13:01:48;30.90;99.90
27781;DHT22;15167;1.318;103.762;2022-08-11T13:04:33;30.80;99.90
27781;DHT22;15167;1.318;103.762;2022-08-11T13:07:18;30.80;99.90
27781;DHT22;15167;1.318;103.762;2022-08-11T13:09:45;30.90;99.90
27781;DHT22;15167;1.318;103.762;2022-08-11T13:12:12;30.80;99.90
27781;DHT22;15167;1.318;103.762;2022-08-11T13:14:57;30.80;99.90
27781;DHT22;15167;1.318;103.762;2022-08-11T13:17:25;30.70;99.90
27781;DHT22;15167;1.318;103.762;2022-08-11T13:19:56;30.70;99.90
27781;DHT22;15167;1.318;103.762;2022-08-11T13:22:24;30.70;99.90
27781;DHT22;15167;1.318;103.762;2022-08-11T13:24:51;30.60;99.90
27781;DHT22;15167;1.318;103.762;2022-08-11T13:27:20;30.60;99.90
27781;DHT22;15167;1.318;103.762;2022-08-11T13:29:47;30.60;99.90
27781;DHT22;15167;1.318;103.762;2022-08-11T13:32:15;30.60;99.90
27781;DHT22;15167;1.318;103.762;2022-08-11T13:34:42;30.50;99.90
27781;DHT22;15167;1.318;103.762;2022-08-11T13:37:09;30.50;99.90
27781;DHT22;15167;1.318;103.762;2022-08-11T13:39:38;30.40;99.90
27781;DHT22;15167;1.318;103.762;2022-08-11T13:42:08;30.40;99.90
27781;DHT22;15167;1.318;103.762;2022-08-11T13:44:36;30.40;99.90
27781;DHT22;15167;1.318;103.762;2022-08-11T13:47:04;30.40;99.90
27781;DHT22;15167;1.318;103.762;2022-08-11T13:49:34;30.40;99.90
27781;DHT22;15167;1.318;103.762;2022-08-11T13:52:02;30.40;99.90
27781;DHT22;15167;1.318;103.762;2022-08-11T13:54:30;30.40;99.90
27781;DHT22;15167;1.318;103.762;2022-08-11T13:57:02;30.50;99.90
27781;DHT22;15167;1.318;103.762;2022-08-11T13:59:30;30.50;99.90
27781;DHT22;15167;1.318;103.762;2022-08-11T14:02:00;30.50;99.90
27781;DHT22;15167;1.318;103.762;2022-08-11T14:04:33;30.40;99.90
27781;DHT22;15167;1.318;103.762;2022-08-11T14:07:04;30.40;99.90
27781;DHT22;15167;1.318;103.762;2022-08-11T14:09:34;30.40;99.90
27781;DHT22;15167;1.318;103.762;2022-08-11T14:12:05;30.40;99.90
27781;DHT22;15167;1.318;103.762;2022-08-11T14:17:51;30.40;99.90
27781;DHT22;15167;1.318;103.762;2022-08-11T14:20:19;30.40;99.90
27781;DHT22;15167;1.318;103.762;2022-08-11T14:22:46;30.30;99.90
27781;DHT22;15167;1.318;103.762;2022-08-11T14:25:14;30.30;99.90
27781;DHT22;15167;1.318;103.762;2022-08-11T14:27:44;30.40;99.90
27781;DHT22;15167;1.318;103.762;2022-08-11T14:30:14;30.40;99.90
27781;DHT22;15167;1.318;103.762;2022-08-11T14:32:59;30.40;99.90
27781;DHT22;15167;1.318;103.762;2022-08-11T14:35:26;30.40;99.90
27781;DHT22;15167;1.318;103.762;2022-08-11T14:37:53;30.40;99.90
27781;DHT22;15167;1.318;103.762;2022-08-11T14:40:20;30.30;99.90
27781;DHT22;15167;1.318;103.762;2022-08-11T14:43:04;30.30;99.90
27781;DHT22;15167;1.318;103.762;2022-08-11T14:45:49;30.20;99.90
27781;DHT22;15167;1.318;103.762;2022-08-11T14:48:41;30.20;99.90
27781;DHT22;15167;1.318;103.762;2022-08-11T14:51:07;30.00;99.90
27781;DHT22;15167;1.318;103.762;2022-08-11T14:53:33;30.00;99.90
27781;DHT22;15167;1.318;103.762;2022-08-11T14:56:00;30.00;99.90
27781;DHT22;15167;1.318;103.762;2022-08-11T14:58:44;30.10;99.90
27781;DHT22;15167;1.318;103.762;2022-08-11T15:01:10;30.10;99.90
27781;DHT22;15167;1.318;103.762;2022-08-11T15:04:09;30.10;99.90
27781;DHT22;15167;1.318;103.762;2022-08-11T15:06:35;30.00;99.90
27781;DHT22;15167;1.318;103.762;2022-08-11T15:09:02;30.00;99.90
27781;DHT22;15167;1.318;103.762;2022-08-11T15:11:29;30.00;99.90
27781;DHT22;15167;1.318;103.762;2022-08-11T15:14:14;30.00;99.90
27781;DHT22;15167;1.318;103.762;2022-08-11T15:17:01;30.00;99.90
27781;DHT22;15167;1.318;103.762;2022-08-11T15:19:34;29.90;99.90
27781;DHT22;15167;1.318;103.762;2022-08-11T15:22:02;29.90;99.90
27781;DHT22;15167;1.318;103.762;2022-08-11T15:24:46;30.40;99.90
27781;DHT22;15167;1.318;103.762;2022-08-11T15:27:13;29.90;99.90
27781;DHT22;15167;1.318;103.762;2022-08-11T15:30:00;29.90;99.90
27781;DHT22;15167;1.318;103.762;2022-08-11T15:32:45;29.90;99.90
27781;DHT22;15167;1.318;103.762;2022-08-11T15:35:30;29.90;99.90
27781;DHT22;15167;1.318;103.762;2022-08-11T15:38:15;29.80;99.90
27781;DHT22;15167;1.318;103.762;2022-08-11T15:40:43;29.80;1.00
27781;DHT22;15167;1.318;103.762;2022-08-11T15:43:41;29.80;1.00
27781;DHT22;15167;1.318;103.762;2022-08-11T15:46:32;29.80;1.00
27781;DHT22;15167;1.318;103.762;2022-08-11T15:49:02;29.80;1.00
27781;DHT22;15167;1.318;103.762;2022-08-11T15:51:33;29.80;1.00
27781;DHT22;15167;1.318;103.762;2022-08-11T15:54:10;29.80;1.00
27781;DHT22;15167;1.318;103.762;2022-08-11T15:56:38;29.80;1.00
27781;DHT22;15167;1.318;103.762;2022-08-11T15:59:06;29.80;1.00
27781;DHT22;15167;1.318;103.762;2022-08-11T16:01:52;29.80;1.00
27781;DHT22;15167;1.318;103.762;2022-08-11T16:04:37;29.80;1.00
27781;DHT22;15167;1.318;103.762;2022-08-11T16:07:05;29.80;1.00
27781;DHT22;15167;1.318;103.762;2022-08-11T16:09:36;29.80;1.00
27781;DHT22;15167;1.318;103.762;2022-08-11T16:12:04;29.80;1.00
27781;DHT22;15167;1.318;103.762;2022-08-11T16:14:32;29.80;1.00
27781;DHT22;15167;1.318;103.762;2022-08-11T16:17:18;29.70;1.00
27781;DHT22;15167;1.318;103.762;2022-08-11T16:19:47;29.70;1.00
27781;DHT22;15167;1.318;103.762;2022-08-11T16:22:15;29.70;1.00
27781;DHT22;15167;1.318;103.762;2022-08-11T16:24:44;29.70;1.00
27781;DHT22;15167;1.318;103.762;2022-08-11T16:27:11;29.70;1.00
27781;DHT22;15167;1.318;103.762;2022-08-11T16:29:43;29.70;99.90
27781;DHT22;15167;1.318;103.762;2022-08-11T16:32:14;29.70;99.90
27781;DHT22;15167;1.318;103.762;2022-08-11T16:34:44;29.70;99.90
27781;DHT22;15167;1.318;103.762;2022-08-11T16:37:49;29.70;99.90
27781;DHT22;15167;1.318;103.762;2022-08-11T16:40:34;29.60;99.90
27781;DHT22;15167;1.318;103.762;2022-08-11T16:43:02;29.60;99.90
27781;DHT22;15167;1.318;103.762;2022-08-11T16:45:48;29.60;99.90
27781;DHT22;15167;1.318;103.762;2022-08-11T16:48:35;29.60;99.90
27781;DHT22;15167;1.318;103.762;2022-08-11T16:51:01;29.60;99.90
27781;DHT22;15167;1.318;103.762;2022-08-11T16:53:28;29.60;99.90
27781;DHT22;15167;1.318;103.762;2022-08-11T16:55:55;29.60;99.90
27781;DHT22;15167;1.318;103.762;2022-08-11T16:58:22;29.70;99.90
27781;DHT22;15167;1.318;103.762;2022-08-11T17:01:27;29.60;99.90
27781;DHT22;15167;1.318;103.762;2022-08-11T17:03:59;29.60;99.90
27781;DHT22;15167;1.318;103.762;2022-08-11T17:06:45;29.60;99.90
27781;DHT22;15167;1.318;103.762;2022-08-11T17:09:31;29.60;99.90
27781;DHT22;15167;1.318;103.762;2022-08-11T17:12:18;29.50;99.90
27781;DHT22;15167;1.318;103.762;2022-08-11T17:15:04;29.50;99.90
27781;DHT22;15167;1.318;103.762;2022-08-11T17:17:51;29.50;99.90
27781;DHT22;15167;1.318;103.762;2022-08-11T17:20:18;29.50;99.90
27781;DHT22;15167;1.318;103.762;2022-08-11T17:22:44;29.60;99.90
27781;DHT22;15167;1.318;103.762;2022-08-11T17:25:29;29.50;99.90
27781;DHT22;15167;1.318;103.762;2022-08-11T17:27:57;29.50;99.90
27781;DHT22;15167;1.318;103.762;2022-08-11T17:30:24;29.50;99.90
27781;DHT22;15167;1.318;103.762;2022-08-11T17:33:11;29.60;99.90
27781;DHT22;15167;1.318;103.762;2022-08-11T17:35:56;29.50;99.90
27781;DHT22;15167;1.318;103.762;2022-08-11T17:38:24;29.60;99.90
27781;DHT22;15167;1.318;103.762;2022-08-11T17:40:51;29.60;99.90
27781;DHT22;15167;1.318;103.762;2022-08-11T17:43:36;29.60;99.90
27781;DHT22;15167;1.318;103.762;2022-08-11T17:46:21;29.60;99.90
27781;DHT22;15167;1.318;103.762;2022-08-11T17:49:07;29.50;99.90
27781;DHT22;15167;1.318;103.762;2022-08-11T17:51:35;29.60;99.90
27781;DHT22;15167;1.318;103.762;2022-08-11T17:54:20;29.50;99.90
27781;DHT22;15167;1.318;103.762;2022-08-11T17:57:05;29.60;99.90
27781;DHT22;15167;1.318;103.762;2022-08-11T17:59:51;29.50;99.90
27781;DHT22;15167;1.318;103.762;2022-08-11T18:02:18;29.50;99.90
27781;DHT22;15167;1.318;103.762;2022-08-11T18:05:04;29.50;99.90
27781;DHT22;15167;1.318;103.762;2022-08-11T18:07:30;29.50;99.90
27781;DHT22;15167;1.318;103.762;2022-08-11T18:10:16;29.50;99.90
27781;DHT22;15167;1.318;103.762;2022-08-11T18:13:01;29.50;99.90
27781;DHT22;15167;1.318;103.762;2022-08-11T18:15:45;29.50;99.90
27781;DHT22;15167;1.318;103.762;2022-08-11T18:18:30;29.50;99.90
27781;DHT22;15167;1.318;103.762;2022-08-11T18:21:14;29.50;99.90
27781;DHT22;15167;1.318;103.762;2022-08-11T18:24:02;29.40;99.90
27781;DHT22;15167;1.318;103.762;2022-08-11T18:26:48;29.50;99.90
27781;DHT22;15167;1.318;103.762;2022-08-11T18:29:32;29.40;99.90
27781;DHT22;15167;1.318;103.762;2022-08-11T18:32:18;29.40;99.90
27781;DHT22;15167;1.318;103.762;2022-08-11T18:35:03;29.40;99.90
27781;DHT22;15167;1.318;103.762;2022-08-11T18:37:48;29.50;99.90
27781;DHT22;15167;1.318;103.762;2022-08-11T18:40:34;29.40;99.90
27781;DHT22;15167;1.318;103.762;2022-08-11T18:43:19;29.40;99.90
27781;DHT22;15167;1.318;103.762;2022-08-11T18:46:05;29.40;99.90
27781;DHT22;15167;1.318;103.762;2022-08-11T18:48:58;29.40;99.90
27781;DHT22;15167;1.318;103.762;2022-08-11T18:51:45;29.50;99.90
27781;DHT22;15167;1.318;103.762;2022-08-11T18:54:30;29.40;99.90
27781;DHT22;15167;1.318;103.762;2022-08-11T18:57:16;29.30;99.90
27781;DHT22;15167;1.318;103.762;2022-08-11T19:00:03;29.30;99.90
27781;DHT22;15167;1.318;103.762;2022-08-11T19:02:48;29.30;99.90
27781;DHT22;15167;1.318;103.762;2022-08-11T19:05:34;29.30;99.90
27781;DHT22;15167;1.318;103.762;2022-08-11T19:08:19;29.30;99.90
27781;DHT22;15167;1.318;103.762;2022-08-11T19:11:05;29.30;99.90
27781;DHT22;15167;1.318;103.762;2022-08-11T19:13:49;29.20;1.00
27781;DHT22;15167;1.318;103.762;2022-08-11T19:16:35;29.20;1.00
27781;DHT22;15167;1.318;103.762;2022-08-11T19:19:21;29.20;1.00
27781;DHT22;15167;1.318;103.762;2022-08-11T19:22:06;29.20;1.00
27781;DHT22;15167;1.318;103.762;2022-08-11T19:24:52;29.10;1.00
27781;DHT22;15167;1.318;103.762;2022-08-11T19:27:38;29.10;1.00
27781;DHT22;15167;1.318;103.762;2022-08-11T19:30:23;29.20;1.00
27781;DHT22;15167;1.318;103.762;2022-08-11T19:33:07;29.20;1.00
27781;DHT22;15167;1.318;103.762;2022-08-11T19:35:51;29.20;1.00
27781;DHT22;15167;1.318;103.762;2022-08-11T19:38:36;29.20;1.00
27781;DHT22;15167;1.318;103.762;2022-08-11T19:41:21;29.20;1.00
27781;DHT22;15167;1.318;103.762;2022-08-11T19:44:07;29.20;1.00
27781;DHT22;15167;1.318;103.762;2022-08-11T19:46:51;29.20;1.00
27781;DHT22;15167;1.318;103.762;2022-08-11T19:49:37;29.20;1.00
27781;DHT22;15167;1.318;103.762;2022-08-11T19:52:23;29.20;1.00
27781;DHT22;15167;1.318;103.762;2022-08-11T19:55:07;29.20;1.00
27781;DHT22;15167;1.318;103.762;2022-08-11T19:57:52;29.20;1.00